Time;durP1;ratioP1;P1;durP2;ratioP2;P2;SDS_P1;SDS_P2;PMS_P1;PMS_P2;Temp;Humidity;BMP_temperature;BMP_pressure;BME280_temperature;BME280_humidity;BME280_pressure;Samples;Min_cycle;Max_cycle;Signal;HPM_P1;HPM_P2
2023/12/10 00:00:58;;;;;;;10.38;2.75;;;8.00;99.90;;;;;;5061115;28;20046;-83
2023/12/10 00:03:24;;;;;;;9.25;3.67;;;8.00;99.90;;;;;;5043440;28;20139;-85
2023/12/10 00:05:50;;;;;;;6.03;2.70;;;8.00;99.90;;;;;;5041961;28;20036;-83
2023/12/10 00:08:15;;;;;;;8.68;2.75;;;8.00;99.90;;;;;;5062895;28;20036;-90
2023/12/10 00:10:41;;;;;;;15.57;3.60;;;8.00;99.90;;;;;;5060195;28;20032;-90
2023/12/10 00:13:09;;;;;;;12.50;3.53;;;8.00;99.90;;;;;;5060423;28;20445;-86
2023/12/10 00:15:35;;;;;;;9.27;3.92;;;8.00;99.90;;;;;;5061008;28;20063;-85
2023/12/10 00:18:01;;;;;;;16.30;2.78;;;8.00;99.90;;;;;;5062004;28;20048;-80
2023/12/10 00:20:27;;;;;;;6.95;2.08;;;8.00;99.90;;;;;;5063245;28;20037;-90
2023/12/10 00:22:52;;;;;;;13.02;3.17;;;8.00;99.90;;;;;;5061384;28;20125;-91
2023/12/10 00:25:18;;;;;;;9.23;2.55;;;8.00;99.90;;;;;;5060620;28;20181;-84
2023/12/10 00:27:44;;;;;;;5.68;2.25;;;8.00;99.90;;;;;;5056893;28;20138;-83
2023/12/10 00:30:10;;;;;;;3.90;2.30;;;8.00;99.90;;;;;;5055704;28;20954;-86
2023/12/10 00:32:36;;;;;;;6.50;1.90;;;8.00;99.90;;;;;;5058652;28;20032;-84
2023/12/10 00:35:02;;;;;;;13.55;3.47;;;8.00;99.90;;;;;;5062438;28;20062;-91
2023/12/10 00:37:28;;;;;;;8.20;2.28;;;8.00;99.90;;;;;;5055858;28;20064;-81
2023/12/10 00:39:53;;;;;;;5.80;3.40;;;8.00;99.90;;;;;;5058685;28;20471;-83
2023/12/10 00:42:19;;;;;;;23.65;2.25;;;7.90;99.90;;;;;;5068885;28;20114;-87
2023/12/10 00:44:45;;;;;;;6.38;1.85;;;7.90;99.90;;;;;;5062854;28;20037;-81
2023/12/10 00:47:11;;;;;;;5.30;1.75;;;7.90;99.90;;;;;;5095957;28;20410;-90
2023/12/10 00:49:36;;;;;;;11.35;3.25;;;7.80;99.90;;;;;;5055316;28;20118;-85
2023/12/10 00:52:02;;;;;;;6.60;3.03;;;7.80;99.90;;;;;;5061843;28;20048;-89
2023/12/10 00:54:30;;;;;;;7.00;1.65;;;7.80;99.90;;;;;;5043550;28;20045;-83
2023/12/10 00:56:55;;;;;;;7.15;1.65;;;7.80;99.90;;;;;;5054463;28;20040;-84
2023/12/10 00:59:21;;;;;;;8.15;2.85;;;7.70;99.90;;;;;;5057327;28;20045;-85
2023/12/10 01:01:46;;;;;;;6.75;1.50;;;7.70;99.90;;;;;;5055284;28;20068;-87
2023/12/10 01:04:12;;;;;;;8.30;1.73;;;7.70;99.90;;;;;;5062377;28;20380;-90
2023/12/10 01:06:38;;;;;;;10.75;1.73;;;7.70;99.90;;;;;;5062122;28;20712;-87
2023/12/10 01:09:04;;;;;;;4.55;2.05;;;7.70;99.90;;;;;;5043677;28;20538;-85
2023/12/10 01:11:30;;;;;;;8.50;3.42;;;7.60;99.90;;;;;;5063079;28;20454;-83
2023/12/10 01:13:56;;;;;;;10.93;3.35;;;7.60;99.90;;;;;;5052698;28;20036;-85
2023/12/10 01:16:21;;;;;;;7.72;2.40;;;7.60;99.90;;;;;;5059232;28;20105;-90
2023/12/10 01:18:47;;;;;;;7.95;3.30;;;7.60;99.90;;;;;;5063093;28;20033;-92
2023/12/10 01:21:13;;;;;;;4.85;2.30;;;7.60;99.90;;;;;;5062582;28;20131;-85
2023/12/10 01:23:39;;;;;;;10.30;3.35;;;7.60;99.90;;;;;;5062736;28;21132;-87
2023/12/10 01:26:12;;;;;;;7.38;1.63;;;7.60;99.90;;;;;;5060525;28;20545;-84
2023/12/10 01:28:39;;;;;;;7.22;2.35;;;7.60;99.90;;;;;;5052774;28;20053;-81
2023/12/10 01:31:05;;;;;;;6.25;1.77;;;7.60;99.90;;;;;;5060034;28;20045;-83
2023/12/10 01:33:31;;;;;;;7.03;1.85;;;7.60;99.90;;;;;;5079568;28;20040;-84
2023/12/10 01:35:56;;;;;;;6.50;2.33;;;7.60;99.90;;;;;;5061441;28;20039;-83
2023/12/10 01:38:22;;;;;;;6.88;2.63;;;7.60;99.90;;;;;;5063406;28;20036;-91
2023/12/10 01:40:48;;;;;;;21.20;2.92;;;7.60;99.90;;;;;;5052898;28;20040;-80
2023/12/10 01:43:17;;;;;;;4.65;3.47;;;7.50;99.90;;;;;;5054243;28;20100;-85
2023/12/10 01:45:50;;;;;;;9.88;2.05;;;7.60;99.90;;;;;;5048689;28;20041;-86
2023/12/10 01:48:19;;;;;;;3.58;1.60;;;7.50;99.90;;;;;;5062328;28;20116;-91
2023/12/10 01:50:46;;;;;;;18.70;4.63;;;7.60;99.90;;;;;;5063333;28;20435;-83
2023/12/10 01:53:13;;;;;;;9.68;3.58;;;7.50;99.90;;;;;;5060304;28;20028;-89
2023/12/10 01:55:39;;;;;;;4.43;1.38;;;7.50;99.90;;;;;;5043286;28;20380;-85
2023/12/10 01:58:05;;;;;;;10.07;2.72;;;7.60;99.90;;;;;;5062721;28;20399;-92
2023/12/10 02:00:32;;;;;;;6.38;2.20;;;7.50;99.90;;;;;;5047848;28;20040;-91
2023/12/10 02:03:02;;;;;;;8.13;2.30;;;7.60;99.90;;;;;;5109768;23;20350;-82
2023/12/10 02:05:29;;;;;;;7.03;1.75;;;7.60;99.90;;;;;;4997470;28;20049;-84
2023/12/10 02:07:54;;;;;;;8.25;2.28;;;7.60;99.90;;;;;;4991840;28;20034;-91
2023/12/10 02:10:20;;;;;;;7.32;3.17;;;7.60;99.90;;;;;;5016612;28;20071;-89
2023/12/10 02:12:48;;;;;;;5.97;1.95;;;7.60;99.90;;;;;;5034996;28;20048;-84
2023/12/10 02:15:20;;;;;;;3.17;2.05;;;7.60;99.90;;;;;;5001358;28;20042;-85
2023/12/10 02:17:47;;;;;;;5.28;2.00;;;7.60;99.90;;;;;;5010150;28;20045;-92
2023/12/10 02:20:16;;;;;;;6.35;2.22;;;7.60;99.90;;;;;;5009243;28;20061;-88
2023/12/10 02:22:51;;;;;;;8.38;1.92;;;7.60;99.90;;;;;;4989139;28;20037;-88
2023/12/10 02:25:23;;;;;;;2.67;1.98;;;7.60;99.90;;;;;;5021031;28;20728;-87
2023/12/10 02:27:49;;;;;;;11.40;3.08;;;7.60;99.90;;;;;;5003717;28;20761;-86
2023/12/10 02:30:15;;;;;;;3.70;1.70;;;7.70;99.90;;;;;;5014956;28;20061;-87
2023/12/10 02:32:41;;;;;;;8.25;2.20;;;7.60;99.90;;;;;;5002741;28;20077;-91
2023/12/10 02:35:07;;;;;;;12.90;2.08;;;7.60;99.90;;;;;;5008249;28;20099;-89
2023/12/10 02:37:33;;;;;;;4.32;1.88;;;7.60;99.90;;;;;;5003620;28;20049;-87
2023/12/10 02:39:58;;;;;;;4.72;1.55;;;7.60;99.90;;;;;;5013864;28;20486;-80
2023/12/10 02:42:24;;;;;;;11.60;3.03;;;7.60;99.90;;;;;;5013392;28;20085;-86
2023/12/10 02:44:49;;;;;;;8.68;2.35;;;7.60;99.90;;;;;;5020033;28;20046;-80
2023/12/10 02:47:15;;;;;;;14.05;1.92;;;7.60;99.90;;;;;;5023043;28;20040;-79
2023/12/10 02:49:41;;;;;;;13.15;2.10;;;7.60;99.90;;;;;;5006269;28;20045;-90
2023/12/10 02:52:06;;;;;;;4.47;1.27;;;7.60;99.90;;;;;;5021363;28;20563;-85
2023/12/10 02:54:32;;;;;;;2.75;1.88;;;7.60;99.90;;;;;;5006873;28;20041;-86
2023/12/10 02:56:58;;;;;;;5.22;1.73;;;7.60;99.90;;;;;;5003243;28;20041;-85
2023/12/10 02:59:23;;;;;;;4.97;1.65;;;7.60;99.90;;;;;;5019952;28;20172;-83
2023/12/10 03:01:49;;;;;;;12.05;2.65;;;7.60;99.90;;;;;;4989990;28;20476;-91
2023/12/10 03:04:14;;;;;;;4.30;1.65;;;7.60;99.90;;;;;;5020901;28;20740;-89
2023/12/10 03:06:40;;;;;;;5.50;1.65;;;7.60;99.90;;;;;;5003617;28;21685;-88
2023/12/10 03:09:06;;;;;;;4.80;2.13;;;7.60;99.90;;;;;;5011337;28;20402;-83
2023/12/10 03:11:31;;;;;;;3.13;1.67;;;7.60;99.90;;;;;;5022101;28;20144;-89
2023/12/10 03:13:57;;;;;;;3.65;1.92;;;7.60;99.90;;;;;;5020009;28;20111;-84
2023/12/10 03:16:22;;;;;;;15.60;3.28;;;7.60;99.90;;;;;;5021878;28;20403;-91
2023/12/10 03:18:48;;;;;;;3.75;2.17;;;7.60;99.90;;;;;;5013014;28;20381;-90
2023/12/10 03:21:14;;;;;;;12.43;2.58;;;7.60;99.90;;;;;;5010339;28;20120;-87
2023/12/10 03:23:39;;;;;;;8.90;2.15;;;7.70;99.90;;;;;;5023434;28;20042;-86
2023/12/10 03:26:05;;;;;;;6.57;1.50;;;7.70;99.90;;;;;;5023452;28;20049;-88
2023/12/10 03:28:31;;;;;;;9.57;2.33;;;7.70;99.90;;;;;;5016033;28;20480;-87
2023/12/10 03:30:56;;;;;;;9.15;2.40;;;7.70;99.90;;;;;;5004210;28;20057;-91
2023/12/10 03:33:22;;;;;;;5.25;1.95;;;7.80;99.90;;;;;;5024853;28;20041;-90
2023/12/10 03:35:48;;;;;;;10.77;2.38;;;7.70;99.90;;;;;;5024515;28;20045;-87
2023/12/10 03:38:13;;;;;;;4.22;1.90;;;7.80;99.90;;;;;;5020590;28;20567;-85
2023/12/10 03:40:39;;;;;;;7.00;2.45;;;7.80;99.90;;;;;;5003657;28;20056;-86
2023/12/10 03:43:04;;;;;;;5.18;2.25;;;7.80;99.90;;;;;;5004022;28;20048;-84
2023/12/10 03:45:30;;;;;;;5.00;2.42;;;7.80;99.90;;;;;;5005060;28;20045;-83
2023/12/10 03:47:56;;;;;;;8.82;1.85;;;7.80;99.90;;;;;;5007283;28;20050;-89
2023/12/10 03:50:22;;;;;;;12.05;2.45;;;7.90;99.90;;;;;;5021353;28;20057;-79
2023/12/10 03:52:48;;;;;;;31.27;2.90;;;7.90;99.90;;;;;;5006950;28;20691;-84
2023/12/10 03:55:13;;;;;;;7.00;2.47;;;7.90;99.90;;;;;;5023005;28;20120;-84
2023/12/10 03:57:39;;;;;;;19.35;2.55;;;7.90;99.90;;;;;;5024616;28;20181;-86
2023/12/10 04:00:06;;;;;;;6.72;2.78;;;7.90;99.90;;;;;;5004321;28;20494;-89
2023/12/10 04:02:32;;;;;;;12.73;2.63;;;7.90;99.90;;;;;;5010806;28;20057;-87
2023/12/10 04:04:57;;;;;;;4.53;2.33;;;8.00;99.90;;;;;;5022252;28;20054;-86
2023/12/10 04:07:24;;;;;;;8.60;2.60;;;8.00;99.90;;;;;;5016678;28;20088;-85
2023/12/10 04:09:49;;;;;;;15.60;2.03;;;8.00;99.90;;;;;;5001884;28;20033;-84
2023/12/10 04:12:15;;;;;;;13.80;2.80;;;8.00;99.90;;;;;;5022839;28;20046;-85
2023/12/10 04:14:41;;;;;;;4.43;2.15;;;8.00;99.90;;;;;;5015807;28;20054;-89
2023/12/10 04:17:06;;;;;;;7.80;1.70;;;8.00;99.90;;;;;;5003904;28;20099;-90
2023/12/10 04:19:32;;;;;;;4.05;2.15;;;8.00;99.90;;;;;;5016364;28;20038;-85
2023/12/10 04:21:58;;;;;;;26.15;3.15;;;8.00;99.90;;;;;;5006404;28;20049;-84
2023/12/10 04:24:23;;;;;;;6.03;1.88;;;8.00;99.90;;;;;;5022761;28;20498;-86
2023/12/10 04:26:49;;;;;;;6.00;2.00;;;8.00;99.90;;;;;;5016447;28;20036;-81
2023/12/10 04:29:15;;;;;;;7.53;2.45;;;8.00;99.90;;;;;;5013825;28;20395;-86
2023/12/10 04:31:41;;;;;;;7.53;2.72;;;8.10;99.90;;;;;;5023670;28;20100;-89
2023/12/10 04:34:07;;;;;;;6.80;3.50;;;8.00;99.90;;;;;;5023056;28;20068;-82
2023/12/10 04:36:32;;;;;;;13.32;2.58;;;8.10;99.90;;;;;;5005702;28;20086;-83
2023/12/10 04:38:58;;;;;;;15.13;4.05;;;8.10;99.90;;;;;;5019778;28;20434;-84
2023/12/10 04:41:24;;;;;;;15.48;2.47;;;8.10;99.90;;;;;;4986446;28;20511;-84
2023/12/10 04:43:49;;;;;;;10.40;2.05;;;8.10;99.90;;;;;;5003193;28;20041;-81
2023/12/10 04:46:18;;;;;;;7.22;2.35;;;8.10;99.90;;;;;;5003769;28;20042;-89
2023/12/10 04:48:43;;;;;;;5.57;2.10;;;8.10;99.90;;;;;;5009055;28;20034;-83
2023/12/10 04:51:10;;;;;;;7.70;3.08;;;8.10;99.90;;;;;;5022264;28;20059;-86
2023/12/10 04:53:36;;;;;;;9.65;1.88;;;8.10;99.90;;;;;;5017219;28;20033;-87
2023/12/10 04:56:01;;;;;;;6.68;2.72;;;8.10;99.90;;;;;;5004200;28;20498;-83
2023/12/10 04:58:27;;;;;;;6.90;2.03;;;8.10;99.90;;;;;;5016004;28;20125;-90
2023/12/10 05:00:53;;;;;;;4.78;1.98;;;8.10;99.90;;;;;;5005190;28;20694;-83
2023/12/10 05:03:18;;;;;;;6.60;2.33;;;8.10;99.90;;;;;;5023009;28;20053;-84
2023/12/10 05:05:44;;;;;;;7.63;1.90;;;8.20;99.90;;;;;;5022427;28;20038;-83
2023/12/10 05:08:10;;;;;;;6.88;2.00;;;8.10;99.90;;;;;;5019482;28;20563;-83
2023/12/10 05:10:36;;;;;;;6.05;1.40;;;8.10;99.90;;;;;;5023414;28;20041;-89
2023/12/10 05:13:01;;;;;;;5.15;1.92;;;8.20;99.90;;;;;;5006632;28;20161;-89
2023/12/10 05:15:27;;;;;;;5.07;1.65;;;8.10;99.90;;;;;;5020786;28;20052;-83
2023/12/10 05:17:53;;;;;;;3.10;0.98;;;8.10;99.90;;;;;;5003392;28;20049;-84
2023/12/10 05:20:18;;;;;;;5.22;1.40;;;8.10;99.90;;;;;;5007795;28;20460;-84
2023/12/10 05:22:44;;;;;;;2.35;1.15;;;8.10;99.90;;;;;;5021863;28;20476;-86
2023/12/10 05:25:11;;;;;;;2.72;1.38;;;8.10;99.90;;;;;;5009384;28;20045;-86
2023/12/10 05:27:36;;;;;;;4.88;1.85;;;8.10;99.90;;;;;;5007744;28;20044;-85
2023/12/10 05:30:02;;;;;;;2.65;1.08;;;8.00;99.90;;;;;;5009483;28;20500;-82
2023/12/10 05:32:28;;;;;;;0.93;0.75;;;8.00;99.90;;;;;;5004148;28;20372;-84
2023/12/10 05:34:53;;;;;;;3.22;1.02;;;8.10;99.90;;;;;;5020128;28;20049;-85
2023/12/10 05:37:19;;;;;;;2.78;2.08;;;8.10;99.90;;;;;;5021073;28;20057;-87
2023/12/10 05:39:45;;;;;;;6.43;1.48;;;8.00;99.90;;;;;;5010506;28;20048;-87
2023/12/10 05:42:10;;;;;;;9.30;1.15;;;8.00;99.90;;;;;;5001131;28;20050;-84
2023/12/10 05:44:36;;;;;;;4.53;1.08;;;8.00;99.90;;;;;;5013104;28;20041;-83
2023/12/10 05:47:02;;;;;;;5.20;1.77;;;8.00;99.90;;;;;;5019242;28;20042;-84
2023/12/10 05:49:28;;;;;;;3.67;1.00;;;8.00;99.90;;;;;;5008460;28;20124;-83
2023/12/10 05:51:54;;;;;;;4.47;1.40;;;8.10;99.90;;;;;;5022156;28;20060;-88
2023/12/10 05:54:20;;;;;;;3.08;2.10;;;8.10;99.90;;;;;;5001861;28;20395;-81
2023/12/10 05:56:45;;;;;;;8.10;1.75;;;8.00;99.90;;;;;;5014606;28;20045;-83
2023/12/10 05:59:11;;;;;;;3.80;1.00;;;8.10;99.90;;;;;;5021679;28;20056;-82
2023/12/10 06:01:37;;;;;;;2.03;1.00;;;8.10;99.90;;;;;;5021314;28;20079;-84
2023/12/10 06:04:02;;;;;;;6.95;1.88;;;8.10;99.90;;;;;;5003075;28;20049;-83
2023/12/10 06:06:28;;;;;;;2.95;0.98;;;8.10;99.90;;;;;;5002683;28;20042;-89
2023/12/10 06:08:54;;;;;;;2.35;0.68;;;8.10;99.90;;;;;;5010800;28;20041;-87
2023/12/10 06:11:19;;;;;;;4.63;1.10;;;8.10;99.90;;;;;;5007877;28;20727;-81
2023/12/10 06:13:45;;;;;;;1.13;0.95;;;8.10;99.90;;;;;;5001889;28;20128;-84
2023/12/10 06:16:10;;;;;;;6.55;1.70;;;8.20;99.90;;;;;;5014791;28;20517;-86
2023/12/10 06:18:36;;;;;;;3.53;1.42;;;8.20;99.90;;;;;;5021302;28;20128;-85
2023/12/10 06:21:02;;;;;;;3.63;0.90;;;8.10;99.90;;;;;;5016251;28;20033;-81
2023/12/10 06:23:27;;;;;;;0.75;0.55;;;8.20;99.90;;;;;;5020459;28;20037;-88
2023/12/10 06:25:53;;;;;;;0.98;0.75;;;8.10;99.90;;;;;;5020281;28;20395;-85
2023/12/10 06:28:19;;;;;;;3.95;0.65;;;8.10;99.90;;;;;;5010529;28;20710;-83
2023/12/10 06:30:44;;;;;;;1.30;0.70;;;8.10;99.90;;;;;;5019110;28;20550;-85
2023/12/10 06:33:10;;;;;;;3.58;1.85;;;8.10;99.90;;;;;;5008078;28;20037;-83
2023/12/10 06:35:36;;;;;;;5.32;1.00;;;8.10;99.90;;;;;;5000681;28;20089;-88
2023/12/10 06:38:01;;;;;;;5.45;0.95;;;8.10;99.90;;;;;;5009276;28;20041;-88
2023/12/10 06:40:27;;;;;;;2.78;1.27;;;8.10;99.90;;;;;;5008392;28;20038;-85
2023/12/10 06:42:52;;;;;;;6.30;0.82;;;8.10;99.90;;;;;;5011748;28;20420;-84
2023/12/10 06:45:19;;;;;;;3.60;1.48;;;8.10;99.90;;;;;;5021944;28;20443;-86
2023/12/10 06:47:45;;;;;;;3.25;1.02;;;8.10;99.90;;;;;;5020222;28;20052;-83
2023/12/10 06:50:11;;;;;;;3.63;0.77;;;8.10;99.90;;;;;;5019172;28;20046;-86
2023/12/10 06:52:36;;;;;;;2.40;0.80;;;8.10;99.90;;;;;;5003513;28;20030;-88
2023/12/10 06:55:02;;;;;;;3.40;0.80;;;8.10;99.90;;;;;;5018706;28;20060;-83
2023/12/10 06:57:28;;;;;;;1.83;0.90;;;8.20;99.90;;;;;;4995695;28;20139;-84
2023/12/10 06:59:54;;;;;;;3.30;1.23;;;8.10;99.90;;;;;;5007567;28;20073;-85
2023/12/10 07:02:20;;;;;;;6.47;1.00;;;8.20;99.90;;;;;;4999088;28;20401;-89
2023/12/10 07:04:46;;;;;;;3.17;1.33;;;8.20;99.90;;;;;;5004575;28;20065;-89
2023/12/10 07:07:11;;;;;;;5.20;1.23;;;8.20;99.90;;;;;;5017775;28;20045;-85
2023/12/10 07:09:37;;;;;;;4.57;2.20;;;8.20;99.90;;;;;;5019386;28;20045;-83
2023/12/10 07:12:03;;;;;;;6.68;1.63;;;8.20;99.90;;;;;;5022539;28;20404;-82
2023/12/10 07:14:29;;;;;;;5.20;1.90;;;8.20;99.90;;;;;;5004729;28;20058;-82
2023/12/10 07:16:54;;;;;;;10.07;2.35;;;8.20;99.90;;;;;;5005210;28;20053;-89
2023/12/10 07:19:20;;;;;;;6.18;1.30;;;8.20;99.90;;;;;;5006030;28;20041;-85
2023/12/10 07:21:48;;;;;;;6.28;1.20;;;8.20;99.90;;;;;;5002213;28;20431;-85
2023/12/10 07:24:14;;;;;;;7.65;1.73;;;8.20;99.90;;;;;;5019410;28;20052;-83
2023/12/10 07:26:40;;;;;;;8.68;2.20;;;8.20;99.90;;;;;;5022829;28;20038;-83
2023/12/10 07:29:05;;;;;;;5.82;2.63;;;8.20;99.90;;;;;;5013310;28;20045;-88
2023/12/10 07:31:31;;;;;;;4.72;1.58;;;8.20;99.90;;;;;;4992085;28;20415;-88
2023/12/10 07:33:57;;;;;;;9.40;2.25;;;8.20;99.90;;;;;;5015934;28;20053;-89
2023/12/10 07:36:22;;;;;;;5.40;2.63;;;8.20;99.90;;;;;;5016200;28;20049;-84
2023/12/10 07:38:49;;;;;;;10.02;3.33;;;8.10;99.90;;;;;;5016994;28;20124;-85
2023/12/10 07:41:14;;;;;;;18.20;3.33;;;8.20;99.90;;;;;;5024512;28;20099;-84
2023/12/10 07:43:40;;;;;;;9.93;1.50;;;8.10;99.90;;;;;;5017097;28;20038;-85
2023/12/10 07:46:06;;;;;;;12.77;1.88;;;8.10;99.90;;;;;;5010908;28;20095;-87
2023/12/10 07:48:33;;;;;;;8.77;2.28;;;8.20;99.90;;;;;;5023106;28;20040;-88
2023/12/10 07:50:59;;;;;;;8.73;2.08;;;8.20;99.90;;;;;;5023612;28;20038;-84
2023/12/10 07:53:25;;;;;;;2.88;2.00;;;8.10;99.90;;;;;;5015792;28;20135;-84
2023/12/10 07:55:50;;;;;;;4.53;2.00;;;8.10;99.90;;;;;;5011651;28;20064;-89
2023/12/10 07:58:16;;;;;;;10.27;2.33;;;8.10;99.90;;;;;;4999831;28;20095;-86
2023/12/10 08:00:46;;;;;;;12.93;2.58;;;8.10;99.90;;;;;;5020230;28;20526;-93
2023/12/10 08:03:13;;;;;;;8.23;1.85;;;8.10;99.90;;;;;;5015942;28;20120;-85
2023/12/10 08:05:38;;;;;;;5.95;2.17;;;8.10;99.90;;;;;;5022565;28;20442;-84
2023/12/10 08:08:04;;;;;;;13.15;2.05;;;8.10;99.90;;;;;;5019559;28;20037;-86
2023/12/10 08:10:31;;;;;;;7.15;1.58;;;8.10;99.90;;;;;;5011583;28;20392;-86
2023/12/10 08:12:56;;;;;;;4.70;1.63;;;8.10;99.90;;;;;;5011821;28;20050;-90
2023/12/10 08:15:22;;;;;;;6.40;2.00;;;8.10;99.90;;;;;;5017269;28;20037;-90
2023/12/10 08:17:48;;;;;;;8.95;2.58;;;8.20;99.90;;;;;;5012109;28;20037;-84
2023/12/10 08:20:13;;;;;;;8.00;2.15;;;8.20;99.90;;;;;;5021820;28;20670;-85
2023/12/10 08:22:39;;;;;;;9.63;2.72;;;8.10;99.90;;;;;;5020294;28;20400;-84
2023/12/10 08:25:05;;;;;;;5.32;2.10;;;8.10;99.90;;;;;;5020733;28;20112;-87
2023/12/10 08:27:31;;;;;;;5.43;1.33;;;8.10;99.90;;;;;;5021404;28;20050;-89
2023/12/10 08:29:57;;;;;;;8.82;1.50;;;8.20;99.90;;;;;;5021359;28;20048;-82
2023/12/10 08:32:22;;;;;;;8.50;2.33;;;8.20;99.90;;;;;;5023612;28;20037;-85
2023/12/10 08:34:48;;;;;;;23.55;3.22;;;8.20;99.90;;;;;;5024270;28;20579;-84
2023/12/10 08:37:13;;;;;;;7.63;1.48;;;8.20;99.90;;;;;;5023154;28;20046;-84
2023/12/10 08:39:40;;;;;;;5.18;1.00;;;8.20;99.90;;;;;;5021722;28;20048;-87
2023/12/10 08:42:05;;;;;;;7.65;0.98;;;8.20;99.90;;;;;;5023519;28;20045;-91
2023/12/10 08:44:31;;;;;;;5.32;1.65;;;8.30;99.90;;;;;;5023613;28;20539;-94
2023/12/10 08:46:57;;;;;;;7.47;1.60;;;8.30;99.90;;;;;;5005150;28;20049;-88
2023/12/10 08:49:23;;;;;;;3.35;0.88;;;8.30;99.90;;;;;;4997010;28;20443;-88
2023/12/10 08:51:49;;;;;;;3.55;1.30;;;8.30;99.90;;;;;;4992722;28;20041;-82
2023/12/10 08:54:15;;;;;;;4.95;1.63;;;8.30;99.90;;;;;;4997854;28;20041;-94
2023/12/10 08:56:43;;;;;;;8.48;2.47;;;8.30;99.90;;;;;;5000191;28;20037;-88
2023/12/10 08:59:11;;;;;;;4.43;1.88;;;8.30;99.90;;;;;;4997056;28;20053;-88
2023/12/10 09:01:37;;;;;;;1.92;1.20;;;8.30;99.90;;;;;;4998889;28;20045;-88
2023/12/10 09:04:05;;;;;;;12.45;1.80;;;8.30;99.90;;;;;;5004046;28;20045;-86
2023/12/10 09:06:31;;;;;;;6.38;2.55;;;8.30;99.90;;;;;;4994674;28;20053;-85
2023/12/10 09:08:57;;;;;;;6.65;1.48;;;8.30;99.90;;;;;;5000260;28;20041;-89
2023/12/10 09:11:23;;;;;;;4.07;1.27;;;8.30;99.90;;;;;;4992250;28;20793;-86
2023/12/10 09:13:52;;;;;;;6.28;1.83;;;8.30;99.90;;;;;;4993334;28;20077;-89
2023/12/10 09:16:22;;;;;;;4.95;2.67;;;8.30;99.90;;;;;;4993226;28;20066;-92
2023/12/10 09:18:49;;;;;;;7.72;1.83;;;8.30;99.90;;;;;;4995956;28;20038;-86
2023/12/10 09:21:17;;;;;;;6.88;1.98;;;8.30;99.90;;;;;;4999702;28;20056;-87
2023/12/10 09:23:46;;;;;;;5.85;2.08;;;8.30;99.90;;;;;;5010983;28;20033;-85
2023/12/10 09:26:12;;;;;;;5.18;2.00;;;8.30;99.90;;;;;;4989552;28;20042;-93
2023/12/10 09:28:37;;;;;;;7.00;1.95;;;8.30;99.90;;;;;;4994793;28;20038;-90
2023/12/10 09:31:03;;;;;;;7.43;1.50;;;8.30;99.90;;;;;;5014408;28;20038;-89
2023/12/10 09:33:30;;;;;;;4.45;1.65;;;8.40;99.90;;;;;;4997570;28;20064;-88
2023/12/10 09:35:55;;;;;;;4.97;2.65;;;8.40;99.90;;;;;;5006228;28;20096;-88
2023/12/10 09:38:21;;;;;;;5.30;1.52;;;8.40;99.90;;;;;;5021956;28;20042;-83
2023/12/10 09:40:47;;;;;;;3.67;1.80;;;8.40;99.90;;;;;;5007896;28;20049;-93
2023/12/10 09:43:13;;;;;;;5.32;1.58;;;8.40;99.90;;;;;;5003576;28;20041;-92
2023/12/10 09:45:39;;;;;;;6.50;2.65;;;8.40;99.90;;;;;;4987025;28;20054;-89
2023/12/10 09:48:07;;;;;;;6.80;1.73;;;8.40;99.90;;;;;;4990011;28;20049;-91
2023/12/10 09:50:38;;;;;;;12.27;3.28;;;8.40;99.90;;;;;;5006309;28;20083;-88
2023/12/10 09:53:05;;;;;;;8.77;3.15;;;8.40;99.90;;;;;;5002302;28;20034;-90
2023/12/10 09:55:31;;;;;;;10.55;2.65;;;8.40;99.90;;;;;;4995142;28;20046;-87
2023/12/10 09:57:56;;;;;;;7.25;2.10;;;8.30;99.90;;;;;;4992040;28;20060;-85
2023/12/10 10:00:23;;;;;;;9.18;2.65;;;8.40;99.90;;;;;;4999143;28;20128;-87
2023/12/10 10:02:50;;;;;;;9.50;2.22;;;8.30;99.90;;;;;;5006148;28;20784;-86
2023/12/10 10:05:16;;;;;;;6.20;1.77;;;8.30;99.90;;;;;;4998224;28;20042;-87
2023/12/10 10:07:42;;;;;;;8.45;2.50;;;8.30;99.90;;;;;;5015156;28;20096;-85
2023/12/10 10:10:11;;;;;;;12.45;2.97;;;8.20;99.90;;;;;;5005380;28;20037;-85
2023/12/10 10:12:37;;;;;;;2.95;1.88;;;8.30;99.90;;;;;;5005503;28;20049;-94
2023/12/10 10:15:04;;;;;;;23.90;3.58;;;8.30;99.90;;;;;;4996048;28;21924;-87
2023/12/10 10:17:34;;;;;;;6.70;2.30;;;8.30;99.90;;;;;;5020614;28;20129;-83
2023/12/10 10:20:00;;;;;;;8.93;2.15;;;8.30;99.90;;;;;;5003303;28;20033;-82
2023/12/10 10:22:27;;;;;;;6.55;3.08;;;8.40;99.90;;;;;;5020820;28;20041;-84
2023/12/10 10:24:53;;;;;;;13.27;3.67;;;8.40;99.90;;;;;;5018314;28;20030;-83
2023/12/10 10:27:19;;;;;;;5.32;2.05;;;8.40;99.90;;;;;;5020395;28;20038;-87
2023/12/10 10:29:45;;;;;;;7.93;3.55;;;8.40;99.90;;;;;;5014561;28;20076;-86
2023/12/10 10:32:16;;;;;;;11.82;2.80;;;8.50;99.90;;;;;;5018183;28;20068;-81
2023/12/10 10:34:46;;;;;;;6.97;2.85;;;8.50;99.90;;;;;;5012359;28;20161;-76
2023/12/10 10:37:13;;;;;;;13.48;4.50;;;8.50;99.90;;;;;;5020367;28;20628;-79
2023/12/10 10:39:38;;;;;;;13.07;2.88;;;8.50;99.90;;;;;;5016333;28;20050;-82
2023/12/10 10:42:08;;;;;;;15.52;3.25;;;8.50;99.90;;;;;;5022143;28;20103;-80
2023/12/10 10:44:35;;;;;;;8.73;3.65;;;8.60;99.90;;;;;;5019343;28;20449;-82
2023/12/10 10:47:04;;;;;;;7.20;3.13;;;8.50;99.90;;;;;;5022952;28;20083;-81
2023/12/10 10:49:32;;;;;;;4.63;1.80;;;8.60;99.90;;;;;;5012489;28;20049;-79
2023/12/10 10:52:01;;;;;;;12.48;3.25;;;8.60;99.90;;;;;;5019605;28;20034;-79
2023/12/10 10:54:28;;;;;;;15.57;3.30;;;8.60;99.90;;;;;;5022206;28;20124;-82
2023/12/10 10:56:53;;;;;;;11.05;2.47;;;8.60;99.90;;;;;;5022400;28;20401;-80
2023/12/10 10:59:32;;;;;;;10.02;3.35;;;8.50;99.90;;;;;;5006334;28;20060;-80
2023/12/10 11:02:05;;;;;;;20.25;3.88;;;8.60;99.90;;;;;;5007947;28;20121;-79
2023/12/10 11:04:41;;;;;;;7.40;3.22;;;8.60;99.90;;;;;;5023269;28;20093;-80
2023/12/10 11:07:07;;;;;;;7.88;3.28;;;8.50;99.90;;;;;;5022864;28;20128;-81
2023/12/10 11:09:59;;;;;;;13.75;3.33;;;8.50;99.90;;;;;;5005317;28;20370;-80
2023/12/10 11:12:44;;;;;;;11.68;3.67;;;8.50;99.90;;;;;;5017717;28;20048;-80
2023/12/10 11:15:16;;;;;;;10.07;3.78;;;8.50;99.90;;;;;;5022703;28;20258;-80
2023/12/10 11:17:59;;;;;;;10.90;2.47;;;8.50;99.90;;;;;;5023158;28;20543;-80
2023/12/10 11:20:33;;;;;;;9.90;2.35;;;8.50;99.90;;;;;;5005824;28;20499;-78
2023/12/10 11:23:01;;;;;;;8.75;3.15;;;8.50;99.90;;;;;;5009243;28;20085;-79
2023/12/10 11:25:28;;;;;;;12.32;5.18;;;8.50;99.90;;;;;;5021464;28;20041;-81
2023/12/10 11:27:56;;;;;;;8.23;3.55;;;8.50;99.90;;;;;;5006251;28;20049;-80
2023/12/10 11:30:21;;;;;;;13.90;4.22;;;8.60;99.90;;;;;;5022539;28;20128;-79
2023/12/10 11:32:47;;;;;;;14.52;2.55;;;8.50;99.90;;;;;;5023768;28;20128;-79
2023/12/10 11:35:14;;;;;;;8.70;3.60;;;8.50;99.90;;;;;;5024228;28;20045;-79
2023/12/10 11:37:41;;;;;;;6.03;2.60;;;8.50;99.90;;;;;;5023109;28;20057;-80
2023/12/10 11:40:08;;;;;;;7.97;3.00;;;8.50;99.90;;;;;;5017223;28;20463;-82
2023/12/10 11:42:34;;;;;;;11.18;4.45;;;8.50;99.90;;;;;;5000614;28;20492;-84
2023/12/10 11:45:00;;;;;;;12.15;3.08;;;8.50;99.90;;;;;;5018344;28;20033;-79
2023/12/10 11:47:25;;;;;;;5.75;3.13;;;8.50;99.90;;;;;;5009888;28;20527;-82
2023/12/10 11:49:51;;;;;;;12.68;3.70;;;8.50;99.90;;;;;;5018040;28;20100;-81
2023/12/10 11:52:16;;;;;;;6.55;2.47;;;8.50;99.90;;;;;;5006492;28;20100;-78
2023/12/10 11:54:43;;;;;;;10.95;4.25;;;8.60;99.90;;;;;;5003203;28;20501;-84
2023/12/10 11:57:08;;;;;;;9.55;2.80;;;8.60;99.90;;;;;;5015027;28;20129;-81
2023/12/10 11:59:34;;;;;;;9.05;3.20;;;8.60;99.90;;;;;;5019901;28;20125;-78
2023/12/10 12:02:01;;;;;;;9.88;2.85;;;8.60;99.90;;;;;;5021970;28;20145;-83
2023/12/10 12:04:30;;;;;;;14.65;2.35;;;8.60;99.90;;;;;;5023006;28;20099;-78
2023/12/10 12:06:55;;;;;;;11.55;4.25;;;8.60;99.90;;;;;;5019647;28;20103;-78
2023/12/10 12:09:21;;;;;;;13.00;3.47;;;8.60;99.90;;;;;;5020483;28;20041;-77
2023/12/10 12:11:48;;;;;;;10.70;2.65;;;8.70;99.90;;;;;;5022200;28;20052;-79
2023/12/10 12:14:19;;;;;;;9.43;2.40;;;8.70;99.90;;;;;;5005369;28;20096;-77
2023/12/10 12:16:48;;;;;;;16.17;4.88;;;8.70;99.90;;;;;;4996534;28;20116;-75
2023/12/10 12:19:34;;;;;;;15.95;2.30;;;8.70;99.90;;;;;;5021805;28;20046;-77
2023/12/10 12:22:00;;;;;;;7.97;1.92;;;8.70;99.90;;;;;;5019557;28;20500;-78
2023/12/10 12:24:25;;;;;;;3.83;1.83;;;8.70;99.90;;;;;;5023317;28;20045;-78
2023/12/10 12:26:52;;;;;;;7.75;2.55;;;8.70;99.90;;;;;;5017966;28;20046;-78
2023/12/10 12:29:18;;;;;;;10.73;3.90;;;8.70;99.90;;;;;;5016057;28;20748;-77
2023/12/10 12:31:43;;;;;;;8.88;3.10;;;8.70;99.90;;;;;;5014470;28;20049;-77
2023/12/10 12:34:09;;;;;;;13.65;4.53;;;8.70;99.90;;;;;;5022382;28;20037;-77
2023/12/10 12:36:35;;;;;;;7.22;2.00;;;8.60;99.90;;;;;;5006715;28;20042;-77
2023/12/10 12:39:03;;;;;;;12.27;2.60;;;8.70;99.90;;;;;;5002210;28;20069;-78
2023/12/10 12:41:29;;;;;;;4.97;1.92;;;8.60;99.90;;;;;;5022798;28;20041;-77
2023/12/10 12:43:54;;;;;;;5.20;2.35;;;8.60;99.90;;;;;;5021383;28;20496;-77
2023/12/10 12:46:20;;;;;;;10.18;2.53;;;8.60;99.90;;;;;;5022616;28;20037;-78
2023/12/10 12:48:46;;;;;;;5.22;1.90;;;8.60;99.90;;;;;;5021754;28;20048;-77
2023/12/10 12:51:12;;;;;;;10.25;2.83;;;8.60;99.90;;;;;;5011319;28;20558;-77